Pagrindinis puslapis
METAR-TAF:

METAR-TAF

Oro uostai :

Jerevanas, Armėnija

platuma: 40-08-50N, ilguma: 044-23-45E, Aukštis: 865 m

Dabartinis oras

Ataskaita buvo paskelbta 30 minutes, ne 20:30 UTC
Ramus vėjas
Temperatūra 4°C
Drėgmė 93%
Slėgis 1021 hPa
Matomumas: 1800 m
rūkana

METAR: UDYZ 152030Z 00000KT 1800 R09/P2000U BR NSC 04/03 Q1021 R09/010070 NOSIG

Laikas: 01:00 (21:00 UTC)

Prognozė

Ataskaita buvo paskelbta 3 valandos ir 55 minutes, ne 17:05 UTC
Prognozė galioja nuo 15 metu 18 UTC su 16 metu 18 UTC
Vėjas 4 kt nuo kintamojo kryptimis
Matomumas: 2000 m
Mažai debesys ne aukštis 2000 ft
rūkana
Laikinai
nuo 15 metu 20 UTC su 15 metu 24 UTC
Matomumas: 0800 m
ne aukštis 400 ft
rūkas
Laikinai
nuo 16 metu 00 UTC su 16 metu 06 UTC
Matomumas: 0200 m
ne aukštis 100 ft
įšaldymas rūko

TAF: UDYZ 151705Z 1518/1618 VRB04KT 2000 BR FEW020 TEMPO 1520/1524 0800 FG VV004 TEMPO 1600/1606 0200 FZFG VV001

Orai ataskaitas ir orų prognozės (METAR, TAF).

turimą stotys yra geltonos ir raudonos taškus žemėlapyje.

Perkelti pele per norėdami pamatyti stoties vardą.

Tada spustelėkite, norėdami matyti oro stebėjimo ir prognozės.

Norėdami pakeisti žemėlapį: spustelėkite ant žalios mygtukų su juodo kryžiaus žemyn,; žalią mygtuką su brūkšneliu, jei norite nutolinti; arba žalių rodyklių gretimoms žemėlapius.


METAR-TAF: